createdAt,value
2023-03-06T00:00:42.845Z,32.90
2023-03-06T00:03:19.726Z,46.50
2023-03-06T00:05:47.344Z,51.90
2023-03-06T00:08:14.803Z,52.60
2023-03-06T00:10:41.985Z,53.50
2023-03-06T00:13:19.019Z,54.30
2023-03-06T00:15:46.805Z,51.40
2023-03-06T00:18:14.778Z,52.80
2023-03-06T00:20:43.873Z,48.00
2023-03-06T00:23:12.054Z,55.50
2023-03-06T00:25:43.420Z,50.70
2023-03-06T00:28:10.646Z,42.80
2023-03-06T00:30:38.335Z,37.20
2023-03-06T00:33:05.412Z,31.40
2023-03-06T00:35:32.620Z,69.00
2023-03-06T00:37:59.935Z,33.60
2023-03-06T00:40:27.482Z,45.60
2023-03-06T00:42:54.603Z,46.00
2023-03-06T00:45:21.953Z,73.20
2023-03-06T00:47:49.079Z,65.70
2023-03-06T00:50:16.444Z,52.00
2023-03-06T00:52:43.636Z,32.90
2023-03-06T00:55:11.247Z,32.80
2023-03-06T00:57:38.391Z,49.50
2023-03-06T01:00:07.040Z,33.20
2023-03-06T01:02:34.243Z,32.30
2023-03-06T01:05:01.566Z,24.60
2023-03-06T01:07:28.890Z,22.00
2023-03-06T01:09:58.268Z,26.50
2023-03-06T01:12:25.468Z,26.90
2023-03-06T01:14:52.491Z,31.60
2023-03-06T01:17:19.627Z,28.80
2023-03-06T01:19:47.044Z,28.60
2023-03-06T01:22:14.229Z,33.40
2023-03-06T01:24:41.325Z,37.50
2023-03-06T01:27:08.552Z,33.80
2023-03-06T01:29:36.047Z,26.80
2023-03-06T01:32:03.483Z,25.70
2023-03-06T01:34:30.636Z,30.20
2023-03-06T01:36:57.807Z,24.50
2023-03-06T01:39:25.179Z,31.00
2023-03-06T01:41:52.532Z,29.90
2023-03-06T01:44:19.634Z,27.90
2023-03-06T01:46:47.436Z,24.30
2023-03-06T01:49:37.852Z,25.20
2023-03-06T01:52:15.469Z,25.60
2023-03-06T01:54:54.930Z,24.70
2023-03-06T01:57:27.304Z,20.90
2023-03-06T02:00:04.656Z,19.50
2023-03-06T02:02:45.670Z,18.40
2023-03-06T02:05:13.187Z,17.40
2023-03-06T02:07:42.690Z,16.70
2023-03-06T02:10:13.701Z,17.60
2023-03-06T02:12:43.815Z,12.90
2023-03-06T02:15:13.738Z,15.30
2023-03-06T02:17:43.248Z,16.70
2023-03-06T02:20:21.515Z,18.10
2023-03-06T02:23:11.601Z,16.30
2023-03-06T02:25:41.184Z,16.40
2023-03-06T02:28:12.297Z,14.10
2023-03-06T02:30:41.178Z,14.30
2023-03-06T02:33:11.234Z,14.10
2023-03-06T02:35:39.870Z,15.60
2023-03-06T02:38:11.244Z,14.40
2023-03-06T02:40:39.675Z,15.60
2023-03-06T02:43:07.977Z,15.60
2023-03-06T02:45:40.858Z,11.80
2023-03-06T02:48:09.497Z,16.40
2023-03-06T02:50:36.617Z,15.30
2023-03-06T02:53:04.051Z,14.40
2023-03-06T02:55:31.652Z,15.50
2023-03-06T02:57:59.628Z,14.30
2023-03-06T03:00:27.418Z,14.10
2023-03-06T03:02:55.438Z,12.60
2023-03-06T03:05:22.927Z,14.50
2023-03-06T03:07:55.882Z,16.20
2023-03-06T03:10:24.088Z,19.60
2023-03-06T03:12:51.543Z,15.80
2023-03-06T03:15:19.820Z,16.30
2023-03-06T03:17:46.947Z,15.40
2023-03-06T03:20:18.853Z,11.20
2023-03-06T03:22:56.283Z,14.60
2023-03-06T03:25:25.629Z,15.90
2023-03-06T03:27:54.086Z,15.20
2023-03-06T03:30:21.685Z,16.60
2023-03-06T03:32:48.947Z,17.90
2023-03-06T03:35:16.271Z,17.00
2023-03-06T03:37:43.463Z,15.20
2023-03-06T03:40:11.283Z,19.20
2023-03-06T03:42:38.616Z,16.70
2023-03-06T03:45:06.353Z,24.10
2023-03-06T03:47:33.538Z,15.30
2023-03-06T03:50:00.737Z,14.90
2023-03-06T03:52:28.024Z,20.70
2023-03-06T03:54:55.637Z,19.90
2023-03-06T03:57:23.001Z,23.30
2023-03-06T03:59:51.857Z,25.20
2023-03-06T04:02:37.644Z,21.20
2023-03-06T04:05:13.145Z,27.90
2023-03-06T04:07:41.715Z,22.00
2023-03-06T04:10:11.073Z,23.10
2023-03-06T04:12:38.786Z,20.80
2023-03-06T04:15:07.891Z,26.20
2023-03-06T04:17:35.547Z,20.50
2023-03-06T04:20:04.980Z,22.00
2023-03-06T04:22:32.788Z,18.30
2023-03-06T04:25:00.350Z,18.70
2023-03-06T04:27:27.683Z,17.10
2023-03-06T04:29:56.553Z,18.00
2023-03-06T04:32:24.224Z,18.80
2023-03-06T04:34:51.855Z,27.30
2023-03-06T04:37:22.357Z,18.70
2023-03-06T04:39:50.237Z,35.30
2023-03-06T04:42:17.394Z,86.30
2023-03-06T04:44:44.853Z,44.40
2023-03-06T04:47:12.638Z,32.20
2023-03-06T04:49:40.208Z,27.80
2023-03-06T04:52:07.899Z,26.90
2023-03-06T04:54:35.014Z,24.50
2023-03-06T04:57:02.173Z,24.00
2023-03-06T04:59:29.529Z,20.80
2023-03-06T05:01:56.723Z,22.40
2023-03-06T05:04:23.909Z,20.50
2023-03-06T05:06:50.974Z,24.60
2023-03-06T05:09:18.089Z,130.10
2023-03-06T05:11:45.197Z,117.00
2023-03-06T05:14:12.307Z,88.60
2023-03-06T05:16:39.938Z,57.30
2023-03-06T05:19:07.128Z,34.00
2023-03-06T05:21:34.360Z,29.70
2023-03-06T05:24:01.414Z,30.60
2023-03-06T05:26:28.460Z,32.00
2023-03-06T05:28:55.559Z,35.90
2023-03-06T05:31:22.766Z,28.60
2023-03-06T05:33:49.939Z,26.80
2023-03-06T05:36:17.086Z,32.30
2023-03-06T05:38:44.212Z,26.10
2023-03-06T05:41:13.155Z,25.00
2023-03-06T05:43:40.389Z,33.30
2023-03-06T05:46:08.300Z,33.50
2023-03-06T05:48:36.332Z,28.10
2023-03-06T05:51:04.784Z,33.80
2023-03-06T05:53:32.673Z,39.20
2023-03-06T05:56:03.259Z,73.60
2023-03-06T05:58:31.736Z,59.80
2023-03-06T06:00:59.024Z,57.30
2023-03-06T06:03:26.324Z,103.90
2023-03-06T06:05:53.496Z,91.60
2023-03-06T06:08:21.171Z,67.60
2023-03-06T06:10:48.234Z,64.50
2023-03-06T06:13:15.383Z,74.40
2023-03-06T06:15:42.457Z,52.90
2023-03-06T06:18:09.649Z,49.30
2023-03-06T06:20:37.929Z,62.90
2023-03-06T06:23:05.697Z,96.30
2023-03-06T06:25:33.287Z,134.80
2023-03-06T06:28:00.383Z,164.60
2023-03-06T06:30:27.511Z,131.00
2023-03-06T06:32:54.634Z,117.10
2023-03-06T06:35:21.761Z,78.80
2023-03-06T06:37:49.882Z,98.40
2023-03-06T06:40:17.383Z,65.10
2023-03-06T06:42:46.667Z,105.70
2023-03-06T06:45:13.743Z,73.20
2023-03-06T06:47:41.776Z,44.60
2023-03-06T06:50:13.093Z,39.00
2023-03-06T06:52:40.751Z,60.40
2023-03-06T06:55:08.596Z,55.70
2023-03-06T06:57:35.746Z,67.90
2023-03-06T07:00:04.631Z,64.80
2023-03-06T07:02:33.017Z,48.00
2023-03-06T07:05:04.606Z,42.60
2023-03-06T07:07:38.110Z,43.30
2023-03-06T07:10:08.563Z,51.10
2023-03-06T07:12:36.773Z,55.80
2023-03-06T07:15:06.100Z,44.90
2023-03-06T07:17:33.194Z,40.20
2023-03-06T07:20:00.219Z,42.00
2023-03-06T07:22:28.111Z,68.80
2023-03-06T07:24:56.150Z,55.10
2023-03-06T07:27:23.979Z,37.70
2023-03-06T07:29:51.124Z,50.20
2023-03-06T07:32:18.636Z,49.90
2023-03-06T07:34:46.574Z,30.10
2023-03-06T07:37:13.855Z,31.90
2023-03-06T07:39:40.935Z,43.70
2023-03-06T07:42:08.066Z,58.50
2023-03-06T07:44:38.922Z,58.30
2023-03-06T07:47:06.614Z,37.70
2023-03-06T07:49:34.656Z,28.30
2023-03-06T07:52:02.085Z,34.20
2023-03-06T07:54:30.838Z,29.50
2023-03-06T07:56:57.908Z,29.60
2023-03-06T07:59:25.804Z,30.50
2023-03-06T08:01:55.606Z,32.50
2023-03-06T08:04:22.757Z,41.80
2023-03-06T08:06:49.801Z,57.20
2023-03-06T08:09:16.905Z,49.10
2023-03-06T08:11:45.389Z,39.40
2023-03-06T08:14:12.432Z,44.40
2023-03-06T08:16:39.658Z,33.50
2023-03-06T08:19:06.967Z,28.80
2023-03-06T08:21:34.190Z,45.40
2023-03-06T08:24:01.238Z,40.40
2023-03-06T08:26:32.303Z,54.90
2023-03-06T08:29:01.384Z,74.70
2023-03-06T08:31:33.862Z,89.70
2023-03-06T08:34:04.300Z,223.70
2023-03-06T08:36:31.574Z,234.20
2023-03-06T08:38:58.816Z,211.40
2023-03-06T08:41:26.326Z,100.10
2023-03-06T08:43:54.260Z,140.40
2023-03-06T08:46:23.638Z,64.20
2023-03-06T08:48:51.404Z,53.20
2023-03-06T08:51:19.474Z,50.50
2023-03-06T08:53:46.658Z,63.70
2023-03-06T08:56:23.424Z,48.70
2023-03-06T08:58:51.026Z,47.60
2023-03-06T09:01:24.490Z,114.60
2023-03-06T09:03:54.923Z,46.40
2023-03-06T09:06:23.067Z,41.10
2023-03-06T09:08:54.096Z,84.70
2023-03-06T09:11:24.582Z,97.40
2023-03-06T09:13:52.322Z,80.90
2023-03-06T09:16:19.707Z,44.30
2023-03-06T09:18:46.776Z,59.10
2023-03-06T09:21:13.835Z,43.60
2023-03-06T09:23:40.927Z,42.90
2023-03-06T09:26:08.530Z,34.10
2023-03-06T09:28:39.170Z,30.20
2023-03-06T09:31:16.703Z,28.20
2023-03-06T09:33:44.233Z,24.90
2023-03-06T09:36:20.322Z,30.20
2023-03-06T09:38:50.016Z,29.60
2023-03-06T09:41:24.727Z,29.20
2023-03-06T09:43:56.433Z,38.30
2023-03-06T09:46:36.763Z,38.70
2023-03-06T09:49:20.765Z,34.90
2023-03-06T09:51:56.506Z,29.10
2023-03-06T09:54:36.154Z,34.60
2023-03-06T09:57:03.639Z,33.50
2023-03-06T09:59:32.119Z,31.40
2023-03-06T10:02:19.251Z,25.10
2023-03-06T10:04:51.835Z,19.30
2023-03-06T10:07:23.958Z,29.00
2023-03-06T10:09:57.178Z,23.10
2023-03-06T10:12:32.755Z,18.60
2023-03-06T10:15:11.930Z,15.50
2023-03-06T10:17:41.499Z,10.30
2023-03-06T10:20:23.049Z,11.50
2023-03-06T10:23:14.657Z,16.10
2023-03-06T10:26:02.455Z,16.60
2023-03-06T10:28:40.791Z,15.20
2023-03-06T10:31:21.440Z,13.00
2023-03-06T10:33:55.740Z,17.20
2023-03-06T10:36:27.709Z,20.00
2023-03-06T10:38:56.856Z,27.20
2023-03-06T10:41:30.391Z,20.60
2023-03-06T10:44:00.618Z,63.90
2023-03-06T10:46:31.268Z,63.40
2023-03-06T10:49:03.476Z,110.90
2023-03-06T10:51:31.595Z,59.10
2023-03-06T10:54:18.166Z,70.50
2023-03-06T10:56:46.815Z,30.20
2023-03-06T10:59:25.708Z,42.30
2023-03-06T11:01:56.192Z,125.70
2023-03-06T11:04:29.182Z,63.60
2023-03-06T11:07:16.002Z,240.90
2023-03-06T11:09:47.856Z,90.70
2023-03-06T11:12:23.353Z,254.40
2023-03-06T11:15:19.010Z,294.70
2023-03-06T11:17:52.141Z,360.30
2023-03-06T11:20:21.487Z,302.90
2023-03-06T11:22:56.548Z,346.70
2023-03-06T11:25:30.558Z,60.30
2023-03-06T11:28:07.443Z,42.70
2023-03-06T11:30:48.282Z,72.40
2023-03-06T11:33:35.350Z,142.70
2023-03-06T11:36:17.163Z,116.70
2023-03-06T11:38:52.955Z,118.30
2023-03-06T11:41:32.076Z,45.90
2023-03-06T11:44:24.738Z,44.10
2023-03-06T11:47:02.916Z,45.80
2023-03-06T11:49:35.076Z,46.00
2023-03-06T11:52:19.821Z,41.90
2023-03-06T11:54:52.035Z,33.20
2023-03-06T11:57:25.201Z,29.60
2023-03-06T12:00:22.846Z,20.50
2023-03-06T12:03:09.406Z,37.80
2023-03-06T12:05:59.774Z,129.50
2023-03-06T12:08:26.880Z,29.00
2023-03-06T12:14:22.048Z,64.40
2023-03-06T12:17:05.845Z,42.00
2023-03-06T12:19:54.314Z,43.80
2023-03-06T12:22:31.280Z,42.80
2023-03-06T12:25:01.594Z,43.80
2023-03-06T12:27:48.843Z,38.00
2023-03-06T12:30:16.047Z,58.90
2023-03-06T12:32:52.184Z,37.10
2023-03-06T12:35:50.822Z,28.70
2023-03-06T12:38:36.898Z,17.90
2023-03-06T12:44:00.301Z,36.70
2023-03-06T12:46:28.318Z,33.00
2023-03-06T12:49:06.352Z,32.10
2023-03-06T12:51:34.588Z,31.90
2023-03-06T12:54:03.413Z,21.30
2023-03-06T12:56:32.080Z,23.00
2023-03-06T12:59:03.178Z,31.90
2023-03-06T13:01:51.495Z,30.40
2023-03-06T13:04:33.756Z,290.80
2023-03-06T13:07:11.865Z,46.80
2023-03-06T13:10:07.020Z,34.30
2023-03-06T13:12:58.259Z,31.40
2023-03-06T13:15:45.919Z,28.40
2023-03-06T13:18:22.085Z,36.80
2023-03-06T13:20:50.975Z,17.40
2023-03-06T13:23:33.458Z,18.60
2023-03-06T13:26:30.654Z,41.30
2023-03-06T13:28:58.535Z,56.20
2023-03-06T13:31:54.096Z,43.80
2023-03-06T13:34:38.777Z,60.10
2023-03-06T13:37:18.628Z,126.80
2023-03-06T13:39:55.062Z,132.50
2023-03-06T13:42:34.647Z,81.10
2023-03-06T13:45:16.452Z,28.70
2023-03-06T13:48:15.888Z,43.90
2023-03-06T13:50:49.183Z,136.70
2023-03-06T13:53:44.816Z,68.50
2023-03-06T13:56:44.024Z,18.80
2023-03-06T13:59:50.536Z,41.90
2023-03-06T14:02:51.768Z,36.80
2023-03-06T14:05:19.803Z,31.20
2023-03-06T14:08:08.118Z,61.10
2023-03-06T14:10:37.118Z,27.40
2023-03-06T14:13:08.203Z,184.90
2023-03-06T14:15:48.511Z,245.00
2023-03-06T14:18:18.753Z,113.60
2023-03-06T14:20:54.117Z,105.60
2023-03-06T14:23:23.474Z,281.30
2023-03-06T14:26:15.663Z,196.80
2023-03-06T14:28:44.639Z,39.80
2023-03-06T14:31:18.130Z,74.40
2023-03-06T14:33:52.408Z,54.30
2023-03-06T14:36:23.194Z,119.10
2023-03-06T14:38:54.055Z,173.60
2023-03-06T14:41:29.782Z,71.30
2023-03-06T14:44:11.959Z,51.20
2023-03-06T14:46:39.043Z,93.60
2023-03-06T14:49:09.175Z,112.60
2023-03-06T14:51:43.871Z,117.70
2023-03-06T14:54:20.028Z,54.60
2023-03-06T14:56:53.250Z,105.00
2023-03-06T14:59:30.918Z,118.00
2023-03-06T15:02:02.612Z,56.70
2023-03-06T15:04:40.629Z,105.30
2023-03-06T15:07:14.972Z,70.60
2023-03-06T15:09:50.868Z,89.30
2023-03-06T15:12:21.357Z,82.30
2023-03-06T15:15:00.372Z,69.30
2023-03-06T15:17:27.523Z,62.70
2023-03-06T15:19:57.312Z,121.80
2023-03-06T15:22:30.861Z,68.40
2023-03-06T15:25:32.623Z,65.90
2023-03-06T15:28:22.124Z,89.00
2023-03-06T15:31:10.910Z,68.80
2023-03-06T15:33:38.165Z,46.20
2023-03-06T15:36:18.495Z,37.20
2023-03-06T15:38:46.746Z,66.70
2023-03-06T15:41:29.895Z,55.80
2023-03-06T15:43:58.328Z,93.00
2023-03-06T15:46:25.606Z,143.00
2023-03-06T15:48:54.782Z,128.10
2023-03-06T15:51:21.943Z,138.70
2023-03-06T15:53:49.357Z,152.60
2023-03-06T15:56:21.988Z,144.50
2023-03-06T15:58:49.170Z,148.10
2023-03-06T16:01:17.759Z,519.80
2023-03-06T16:03:45.954Z,502.60
2023-03-06T16:06:18.431Z,420.90
2023-03-06T16:08:45.812Z,370.70
2023-03-06T16:11:35.414Z,122.20
2023-03-06T16:14:23.988Z,95.40
2023-03-06T16:16:54.243Z,118.90
2023-03-06T16:19:27.774Z,85.20
2023-03-06T16:21:56.727Z,94.20
2023-03-06T16:24:26.291Z,126.40
2023-03-06T16:26:55.257Z,137.00
2023-03-06T16:29:30.238Z,126.70
2023-03-06T16:31:59.001Z,309.40
2023-03-06T16:34:26.246Z,221.30
2023-03-06T16:36:53.488Z,118.70
2023-03-06T16:39:22.977Z,110.40
2023-03-06T16:41:50.802Z,371.80
2023-03-06T16:44:18.319Z,199.70
2023-03-06T16:46:47.589Z,181.90
2023-03-06T16:49:23.344Z,129.50
2023-03-06T16:51:51.678Z,101.30
2023-03-06T16:54:19.595Z,80.70
2023-03-06T16:56:46.813Z,56.60
2023-03-06T16:59:13.880Z,44.60
2023-03-06T17:01:44.884Z,35.80
2023-03-06T17:04:12.326Z,36.90
2023-03-06T17:06:39.923Z,74.40
2023-03-06T17:09:07.229Z,121.40
2023-03-06T17:11:38.638Z,144.20
2023-03-06T17:14:07.073Z,144.70
2023-03-06T17:16:37.222Z,182.90
2023-03-06T17:19:04.546Z,128.50
2023-03-06T17:21:32.045Z,136.00
2023-03-06T17:24:01.758Z,242.40
2023-03-06T17:26:28.934Z,271.90
2023-03-06T17:28:56.316Z,202.90
2023-03-06T17:31:26.796Z,229.00
2023-03-06T17:33:59.168Z,351.10
2023-03-06T17:36:28.154Z,131.00
2023-03-06T17:38:56.825Z,89.20
2023-03-06T17:41:24.950Z,87.10
2023-03-06T17:43:56.076Z,83.60
2023-03-06T17:46:23.304Z,96.80
2023-03-06T17:48:50.791Z,105.50
2023-03-06T17:51:18.000Z,146.40
2023-03-06T17:53:45.533Z,170.80
2023-03-06T17:56:14.083Z,190.00
2023-03-06T17:58:41.649Z,209.20
2023-03-06T18:01:15.687Z,200.20
2023-03-06T18:03:48.263Z,173.00
2023-03-06T18:06:16.627Z,167.70
2023-03-06T18:08:44.142Z,141.90
2023-03-06T18:11:11.646Z,126.60
2023-03-06T18:13:41.530Z,107.80
2023-03-06T18:16:09.837Z,136.90
2023-03-06T18:18:37.060Z,86.60
2023-03-06T18:21:13.709Z,114.90
2023-03-06T18:23:41.312Z,143.90
2023-03-06T18:26:11.730Z,127.20
2023-03-06T18:28:42.476Z,91.30
2023-03-06T18:31:21.691Z,85.90
2023-03-06T18:33:49.637Z,92.60
2023-03-06T18:36:17.511Z,101.70
2023-03-06T18:38:45.772Z,113.10
2023-03-06T18:41:13.730Z,143.70
2023-03-06T18:43:40.922Z,115.30
2023-03-06T18:46:08.778Z,148.00
2023-03-06T18:48:36.629Z,237.80
2023-03-06T18:51:06.068Z,385.60
2023-03-06T18:53:33.227Z,353.50
2023-03-06T18:56:00.488Z,279.80
2023-03-06T18:58:27.741Z,183.10
2023-03-06T19:00:55.274Z,156.10
2023-03-06T19:03:23.529Z,127.60
2023-03-06T19:05:50.602Z,87.60
2023-03-06T19:08:18.495Z,76.90
2023-03-06T19:10:47.095Z,76.00
2023-03-06T19:13:14.883Z,66.80
2023-03-06T19:15:47.225Z,69.10
2023-03-06T19:18:17.806Z,68.50
2023-03-06T19:20:45.419Z,169.70
2023-03-06T19:23:12.642Z,396.10
2023-03-06T19:25:40.054Z,220.80
2023-03-06T19:28:07.381Z,105.20
2023-03-06T19:30:34.788Z,66.60
2023-03-06T19:33:01.888Z,60.70
2023-03-06T19:35:29.394Z,51.20
2023-03-06T19:37:59.413Z,40.90
2023-03-06T19:40:26.493Z,40.90
2023-03-06T19:42:53.589Z,45.50
2023-03-06T19:45:20.663Z,276.80
2023-03-06T19:47:49.346Z,120.60
2023-03-06T19:50:16.666Z,77.80
2023-03-06T19:52:43.696Z,57.90
2023-03-06T19:55:10.886Z,63.60
2023-03-06T19:57:37.954Z,48.90
2023-03-06T20:00:05.736Z,61.80
2023-03-06T20:02:39.806Z,63.90
2023-03-06T20:05:09.318Z,61.50
2023-03-06T20:07:36.643Z,82.20
2023-03-06T20:10:04.662Z,76.50
2023-03-06T20:12:33.302Z,80.30
2023-03-06T20:15:00.391Z,65.30
2023-03-06T20:17:27.701Z,48.50
2023-03-06T20:19:55.096Z,42.20
2023-03-06T20:22:22.178Z,47.20
2023-03-06T20:24:49.259Z,43.20
2023-03-06T20:27:16.619Z,47.50
2023-03-06T20:29:44.889Z,47.50
2023-03-06T20:32:13.371Z,51.60
2023-03-06T20:34:40.815Z,47.60
2023-03-06T20:37:10.261Z,49.80
2023-03-06T20:39:37.802Z,51.80
2023-03-06T20:42:05.876Z,56.20
2023-03-06T20:44:33.260Z,59.10
2023-03-06T20:47:00.357Z,58.60
2023-03-06T20:49:28.581Z,59.00
2023-03-06T20:51:56.885Z,51.70
2023-03-06T20:54:23.964Z,52.20
2023-03-06T20:56:51.036Z,51.10
2023-03-06T20:59:18.456Z,49.60
2023-03-06T21:01:47.000Z,49.20
2023-03-06T21:04:14.673Z,53.00
2023-03-06T21:06:46.402Z,59.30
2023-03-06T21:09:16.832Z,60.60
2023-03-06T21:11:44.414Z,63.50
2023-03-06T21:14:13.354Z,63.70
2023-03-06T21:16:41.070Z,61.90
2023-03-06T21:19:08.198Z,60.20
2023-03-06T21:21:35.702Z,56.70
2023-03-06T21:24:02.853Z,59.30
2023-03-06T21:26:33.846Z,51.50
2023-03-06T21:29:02.028Z,46.60
2023-03-06T21:31:30.654Z,51.20
2023-03-06T21:33:59.087Z,51.50
2023-03-06T21:36:27.364Z,47.90
2023-03-06T21:38:55.152Z,64.20
2023-03-06T21:41:27.039Z,86.90
2023-03-06T21:43:59.262Z,74.30
2023-03-06T21:46:27.574Z,66.10
2023-03-06T21:48:55.895Z,56.20
2023-03-06T21:51:24.197Z,56.70
2023-03-06T21:53:52.498Z,56.10
2023-03-06T21:56:22.440Z,54.00
2023-03-06T21:58:49.593Z,51.60
2023-03-06T22:01:23.726Z,42.20
2023-03-06T22:03:51.413Z,42.30
2023-03-06T22:06:21.562Z,82.00
2023-03-06T22:08:49.048Z,48.20
2023-03-06T22:11:19.219Z,75.00
2023-03-06T22:13:48.199Z,74.60
2023-03-06T22:16:15.936Z,100.30
2023-03-06T22:18:47.763Z,95.70
2023-03-06T22:21:17.207Z,99.80
2023-03-06T22:23:44.500Z,80.70
2023-03-06T22:26:13.658Z,84.30
2023-03-06T22:28:41.767Z,106.60
2023-03-06T22:31:13.732Z,95.80
2023-03-06T22:33:41.855Z,101.70
2023-03-06T22:36:11.543Z,101.40
2023-03-06T22:38:40.649Z,91.70
2023-03-06T22:41:09.275Z,94.50
2023-03-06T22:43:36.937Z,88.20
2023-03-06T22:46:06.830Z,80.90
2023-03-06T22:48:34.285Z,93.50
2023-03-06T22:51:03.607Z,117.10
2023-03-06T22:53:30.849Z,159.10
2023-03-06T22:55:59.664Z,163.20
2023-03-06T22:58:28.517Z,130.00
2023-03-06T23:00:55.703Z,84.20
2023-03-06T23:03:23.022Z,94.70
2023-03-06T23:05:50.521Z,96.70
2023-03-06T23:08:17.627Z,130.60
2023-03-06T23:10:44.644Z,120.30
2023-03-06T23:13:30.152Z,119.40
2023-03-06T23:16:15.864Z,151.40
2023-03-06T23:19:01.624Z,131.90
2023-03-06T23:21:47.181Z,289.50
2023-03-06T23:24:36.736Z,161.50
2023-03-06T23:27:04.022Z,97.20
2023-03-06T23:29:31.162Z,64.20
2023-03-06T23:31:58.289Z,84.90
2023-03-06T23:34:25.551Z,100.50
2023-03-06T23:36:52.648Z,91.10
2023-03-06T23:39:20.633Z,93.80
2023-03-06T23:41:47.785Z,107.60
2023-03-06T23:44:14.862Z,114.00
2023-03-06T23:46:42.011Z,100.10
2023-03-06T23:49:09.190Z,79.90
2023-03-06T23:51:36.284Z,81.60
2023-03-06T23:54:03.412Z,78.90
2023-03-06T23:56:30.439Z,85.80
2023-03-06T23:58:57.458Z,120.40
